Impacts TAF Board INFO
FOR SITUATIONAL AWARENESS. NOT TO BE USED FOR FLIGHT PLANNING PURPOSES.
IDs:

KJAN - Jackson/Evers Intl, MS, US

Issued at 1121 UTC 19 Nov 2017
Updated at 1200 UTC 19 Nov 2017
Potential Impact None Slight Moderate High
Time1154Z 19/12Z 19/13Z 19/14Z 19/15Z 19/16Z 19/17Z 19/18Z 19/19Z 19/20Z 19/21Z 19/22Z 19/23Z 20/00Z>>
Type OBS PRVL PRVL PRVL PRVL PRVL PRVL PRVL PRVL PRVL PRVL PRVL PRVL PRVL
VIS 10 >6 >6 >6 >6 >6 >6 >6 >6 >6 >6 >6 >6 >6
CIG -- -- -- -- -- -- -- -- -- -- -- -- -- --
Cover CLR SKC SKC SKC SKC SKC SKC SKC SKC SKC SKC SKC SKC SKC
FltCat VFR VFR VFR VFR VFR VFR VFR VFR VFR VFR VFR VFR VFR VFR
WX -- -- -- -- -- -- -- -- -- -- -- -- -- --
WDir 330 350 350 350 360 360 360 360 360 360 360 360 340 340
WSpd 4 8 8 8 12 12 12 12 12 12 12 12 7 7
WGst -- -- -- -- 27 27 27 27 27 27 27 27 -- --

Raw TAF
KJAN 191121Z 1912/2012 35008KT P6SM SKC
  FM191500 36012G27KT P6SM SKC
  FM192300 34007KT P6SM SKC


Raw METAR
KJAN 191154Z 33004KT 10SM CLR 06/02 A3019 RMK AO2 SLP221 70013 T00610022 10117 20061 53014
KJAN 191054Z AUTO 33004KT 10SM CLR 07/02 A3017 RMK AO2 SLP213 T00670022
KJAN 190954Z AUTO 34005KT 10SM CLR 07/02 A3015 RMK AO2 SLP208 T00720022
KJAN 190854Z AUTO 35008KT 10SM CLR 09/02 A3015 RMK AO2 SLP206 T00890022 51014

METAR Board
Radar Display
Forecast Discussion

FOR SITUATIONAL AWARENESS. NOT TO BE USED FOR FLIGHT PLANNING PURPOSES.